sensor_id;sensor_type;location;lat;lon;timestamp;P1;durP1;ratioP1;P2;durP2;ratioP2
79135;SDS011;68533;51.090;17.216;2023-04-09T00:02:23;30.33;;;15.23;;
79135;SDS011;68533;51.090;17.216;2023-04-09T00:04:52;35.10;;;15.70;;
79135;SDS011;68533;51.090;17.216;2023-04-09T00:07:18;34.70;;;16.95;;
79135;SDS011;68533;51.090;17.216;2023-04-09T00:09:46;31.83;;;17.58;;
79135;SDS011;68533;51.090;17.216;2023-04-09T00:12:11;29.90;;;15.60;;
79135;SDS011;68533;51.090;17.216;2023-04-09T00:14:37;34.60;;;17.17;;
79135;SDS011;68533;51.090;17.216;2023-04-09T00:17:03;32.85;;;16.35;;
79135;SDS011;68533;51.090;17.216;2023-04-09T00:19:29;34.35;;;17.48;;
79135;SDS011;68533;51.090;17.216;2023-04-09T00:21:55;37.15;;;17.08;;
79135;SDS011;68533;51.090;17.216;2023-04-09T00:24:21;33.03;;;16.42;;
79135;SDS011;68533;51.090;17.216;2023-04-09T00:26:47;33.50;;;18.10;;
79135;SDS011;68533;51.090;17.216;2023-04-09T00:29:14;36.78;;;17.70;;
79135;SDS011;68533;51.090;17.216;2023-04-09T00:31:39;34.35;;;16.27;;
79135;SDS011;68533;51.090;17.216;2023-04-09T00:34:05;33.70;;;16.58;;
79135;SDS011;68533;51.090;17.216;2023-04-09T00:36:31;34.67;;;18.42;;
79135;SDS011;68533;51.090;17.216;2023-04-09T00:38:57;30.98;;;16.25;;
79135;SDS011;68533;51.090;17.216;2023-04-09T00:41:23;31.27;;;17.35;;
79135;SDS011;68533;51.090;17.216;2023-04-09T00:43:49;32.30;;;16.02;;
79135;SDS011;68533;51.090;17.216;2023-04-09T00:46:15;35.85;;;18.88;;
79135;SDS011;68533;51.090;17.216;2023-04-09T00:48:42;35.33;;;16.55;;
79135;SDS011;68533;51.090;17.216;2023-04-09T00:51:10;37.13;;;18.35;;
79135;SDS011;68533;51.090;17.216;2023-04-09T00:53:36;29.45;;;16.80;;
79135;SDS011;68533;51.090;17.216;2023-04-09T00:56:02;37.22;;;16.60;;
79135;SDS011;68533;51.090;17.216;2023-04-09T00:58:29;31.38;;;16.30;;
79135;SDS011;68533;51.090;17.216;2023-04-09T01:03:30;35.38;;;18.30;;
79135;SDS011;68533;51.090;17.216;2023-04-09T01:06:11;35.88;;;16.55;;
79135;SDS011;68533;51.090;17.216;2023-04-09T01:11:34;34.40;;;18.02;;
79135;SDS011;68533;51.090;17.216;2023-04-09T01:17:17;32.83;;;15.52;;
79135;SDS011;68533;51.090;17.216;2023-04-09T01:19:49;38.33;;;17.95;;
79135;SDS011;68533;51.090;17.216;2023-04-09T01:28:13;31.50;;;16.20;;
79135;SDS011;68533;51.090;17.216;2023-04-09T01:30:49;35.20;;;17.10;;
79135;SDS011;68533;51.090;17.216;2023-04-09T01:33:18;33.72;;;17.58;;
79135;SDS011;68533;51.090;17.216;2023-04-09T01:35:46;34.10;;;17.55;;
79135;SDS011;68533;51.090;17.216;2023-04-09T01:38:15;40.60;;;17.92;;
79135;SDS011;68533;51.090;17.216;2023-04-09T01:40:44;33.28;;;17.40;;
79135;SDS011;68533;51.090;17.216;2023-04-09T01:43:10;31.55;;;16.35;;
79135;SDS011;68533;51.090;17.216;2023-04-09T01:45:38;37.50;;;19.00;;
79135;SDS011;68533;51.090;17.216;2023-04-09T01:48:05;38.40;;;17.63;;
79135;SDS011;68533;51.090;17.216;2023-04-09T01:50:31;32.63;;;15.88;;
79135;SDS011;68533;51.090;17.216;2023-04-09T01:52:58;38.70;;;17.42;;
79135;SDS011;68533;51.090;17.216;2023-04-09T01:55:26;34.92;;;17.77;;
79135;SDS011;68533;51.090;17.216;2023-04-09T01:57:52;35.40;;;18.33;;
79135;SDS011;68533;51.090;17.216;2023-04-09T02:00:18;37.85;;;18.80;;
79135;SDS011;68533;51.090;17.216;2023-04-09T02:02:58;39.42;;;20.08;;
79135;SDS011;68533;51.090;17.216;2023-04-09T02:05:30;35.45;;;17.90;;
79135;SDS011;68533;51.090;17.216;2023-04-09T02:08:05;36.20;;;19.40;;
79135;SDS011;68533;51.090;17.216;2023-04-09T02:10:36;41.42;;;20.60;;
79135;SDS011;68533;51.090;17.216;2023-04-09T02:13:04;40.05;;;19.23;;
79135;SDS011;68533;51.090;17.216;2023-04-09T02:15:34;46.95;;;20.90;;
79135;SDS011;68533;51.090;17.216;2023-04-09T02:18:03;44.47;;;20.67;;
79135;SDS011;68533;51.090;17.216;2023-04-09T02:20:29;43.03;;;21.48;;
79135;SDS011;68533;51.090;17.216;2023-04-09T02:22:54;45.50;;;22.27;;
79135;SDS011;68533;51.090;17.216;2023-04-09T02:25:21;40.47;;;20.88;;
79135;SDS011;68533;51.090;17.216;2023-04-09T02:27:47;41.38;;;20.15;;
79135;SDS011;68533;51.090;17.216;2023-04-09T02:30:13;42.50;;;20.80;;
79135;SDS011;68533;51.090;17.216;2023-04-09T02:32:41;42.78;;;22.73;;
79135;SDS011;68533;51.090;17.216;2023-04-09T02:35:08;46.45;;;23.77;;
79135;SDS011;68533;51.090;17.216;2023-04-09T02:37:34;42.75;;;21.20;;
79135;SDS011;68533;51.090;17.216;2023-04-09T02:40:02;46.83;;;22.92;;
79135;SDS011;68533;51.090;17.216;2023-04-09T02:42:28;46.38;;;21.52;;
79135;SDS011;68533;51.090;17.216;2023-04-09T02:44:54;42.90;;;21.25;;
79135;SDS011;68533;51.090;17.216;2023-04-09T02:47:20;49.10;;;23.52;;
79135;SDS011;68533;51.090;17.216;2023-04-09T02:49:46;41.28;;;22.67;;
79135;SDS011;68533;51.090;17.216;2023-04-09T02:52:12;42.80;;;22.05;;
79135;SDS011;68533;51.090;17.216;2023-04-09T02:54:38;44.95;;;22.52;;
79135;SDS011;68533;51.090;17.216;2023-04-09T02:57:04;51.05;;;22.30;;
79135;SDS011;68533;51.090;17.216;2023-04-09T02:59:30;45.95;;;23.50;;
79135;SDS011;68533;51.090;17.216;2023-04-09T03:01:57;44.95;;;21.73;;
79135;SDS011;68533;51.090;17.216;2023-04-09T03:04:24;44.50;;;22.15;;
79135;SDS011;68533;51.090;17.216;2023-04-09T03:06:49;53.22;;;22.95;;
79135;SDS011;68533;51.090;17.216;2023-04-09T03:09:16;44.15;;;22.25;;
79135;SDS011;68533;51.090;17.216;2023-04-09T03:11:41;48.70;;;23.85;;
79135;SDS011;68533;51.090;17.216;2023-04-09T03:14:08;46.97;;;23.08;;
79135;SDS011;68533;51.090;17.216;2023-04-09T03:16:36;44.28;;;20.30;;
79135;SDS011;68533;51.090;17.216;2023-04-09T03:19:02;47.45;;;22.58;;
79135;SDS011;68533;51.090;17.216;2023-04-09T03:21:28;50.88;;;22.42;;
79135;SDS011;68533;51.090;17.216;2023-04-09T03:23:54;42.15;;;21.02;;
79135;SDS011;68533;51.090;17.216;2023-04-09T03:26:20;43.40;;;21.83;;
79135;SDS011;68533;51.090;17.216;2023-04-09T03:28:46;46.60;;;21.65;;
79135;SDS011;68533;51.090;17.216;2023-04-09T03:31:12;43.10;;;21.98;;
79135;SDS011;68533;51.090;17.216;2023-04-09T03:33:38;45.28;;;22.40;;
79135;SDS011;68533;51.090;17.216;2023-04-09T03:36:04;45.25;;;22.90;;
79135;SDS011;68533;51.090;17.216;2023-04-09T03:38:31;46.88;;;22.52;;
79135;SDS011;68533;51.090;17.216;2023-04-09T03:40:56;44.15;;;20.98;;
79135;SDS011;68533;51.090;17.216;2023-04-09T03:43:23;45.17;;;22.00;;
79135;SDS011;68533;51.090;17.216;2023-04-09T03:45:48;46.90;;;21.45;;
79135;SDS011;68533;51.090;17.216;2023-04-09T03:48:17;46.03;;;22.05;;
79135;SDS011;68533;51.090;17.216;2023-04-09T03:50:45;49.28;;;21.83;;
79135;SDS011;68533;51.090;17.216;2023-04-09T03:53:11;48.00;;;24.08;;
79135;SDS011;68533;51.090;17.216;2023-04-09T03:55:37;44.40;;;22.67;;
79135;SDS011;68533;51.090;17.216;2023-04-09T03:58:03;42.63;;;21.02;;
79135;SDS011;68533;51.090;17.216;2023-04-09T04:00:29;47.50;;;22.77;;
79135;SDS011;68533;51.090;17.216;2023-04-09T04:02:56;51.20;;;25.10;;
79135;SDS011;68533;51.090;17.216;2023-04-09T04:05:24;47.15;;;24.88;;
79135;SDS011;68533;51.090;17.216;2023-04-09T04:07:51;48.42;;;24.40;;
79135;SDS011;68533;51.090;17.216;2023-04-09T04:10:17;42.15;;;23.15;;
79135;SDS011;68533;51.090;17.216;2023-04-09T04:12:43;48.45;;;21.90;;
79135;SDS011;68533;51.090;17.216;2023-04-09T04:15:09;48.35;;;23.40;;
79135;SDS011;68533;51.090;17.216;2023-04-09T04:17:35;48.92;;;24.52;;
79135;SDS011;68533;51.090;17.216;2023-04-09T04:20:01;48.50;;;23.00;;
79135;SDS011;68533;51.090;17.216;2023-04-09T04:22:28;48.22;;;23.08;;
79135;SDS011;68533;51.090;17.216;2023-04-09T04:24:54;46.92;;;22.92;;
79135;SDS011;68533;51.090;17.216;2023-04-09T04:27:24;46.35;;;22.73;;
79135;SDS011;68533;51.090;17.216;2023-04-09T04:29:50;47.17;;;23.65;;
79135;SDS011;68533;51.090;17.216;2023-04-09T04:32:16;48.92;;;22.42;;
79135;SDS011;68533;51.090;17.216;2023-04-09T04:34:41;48.20;;;23.67;;
79135;SDS011;68533;51.090;17.216;2023-04-09T04:37:08;48.35;;;23.20;;
79135;SDS011;68533;51.090;17.216;2023-04-09T04:39:33;50.50;;;24.33;;
79135;SDS011;68533;51.090;17.216;2023-04-09T04:42:00;47.75;;;24.05;;
79135;SDS011;68533;51.090;17.216;2023-04-09T04:44:26;49.33;;;24.35;;
79135;SDS011;68533;51.090;17.216;2023-04-09T04:46:52;45.22;;;21.77;;
79135;SDS011;68533;51.090;17.216;2023-04-09T04:49:21;44.22;;;22.00;;
79135;SDS011;68533;51.090;17.216;2023-04-09T04:51:47;55.00;;;22.80;;
79135;SDS011;68533;51.090;17.216;2023-04-09T04:54:13;46.40;;;23.08;;
79135;SDS011;68533;51.090;17.216;2023-04-09T04:56:39;51.95;;;24.58;;
79135;SDS011;68533;51.090;17.216;2023-04-09T04:59:05;46.67;;;24.33;;
79135;SDS011;68533;51.090;17.216;2023-04-09T05:01:31;48.15;;;23.45;;
79135;SDS011;68533;51.090;17.216;2023-04-09T05:03:57;50.92;;;27.50;;
79135;SDS011;68533;51.090;17.216;2023-04-09T05:06:23;50.40;;;24.15;;
79135;SDS011;68533;51.090;17.216;2023-04-09T05:08:51;53.88;;;24.92;;
79135;SDS011;68533;51.090;17.216;2023-04-09T05:11:17;52.22;;;23.27;;
79135;SDS011;68533;51.090;17.216;2023-04-09T05:13:44;47.63;;;23.20;;
79135;SDS011;68533;51.090;17.216;2023-04-09T05:16:15;52.10;;;24.55;;
79135;SDS011;68533;51.090;17.216;2023-04-09T05:18:44;46.13;;;23.98;;
79135;SDS011;68533;51.090;17.216;2023-04-09T05:21:11;49.10;;;23.80;;
79135;SDS011;68533;51.090;17.216;2023-04-09T05:23:38;49.05;;;21.80;;
79135;SDS011;68533;51.090;17.216;2023-04-09T05:28:33;49.30;;;22.23;;
79135;SDS011;68533;51.090;17.216;2023-04-09T05:30:59;46.78;;;23.02;;
79135;SDS011;68533;51.090;17.216;2023-04-09T05:33:25;51.08;;;25.00;;
79135;SDS011;68533;51.090;17.216;2023-04-09T05:35:52;55.58;;;28.27;;
79135;SDS011;68533;51.090;17.216;2023-04-09T05:38:18;52.70;;;25.73;;
79135;SDS011;68533;51.090;17.216;2023-04-09T05:40:44;56.17;;;26.90;;
79135;SDS011;68533;51.090;17.216;2023-04-09T05:43:13;54.38;;;26.60;;
79135;SDS011;68533;51.090;17.216;2023-04-09T05:45:39;57.65;;;28.33;;
79135;SDS011;68533;51.090;17.216;2023-04-09T05:48:05;56.35;;;26.98;;
79135;SDS011;68533;51.090;17.216;2023-04-09T05:50:31;52.38;;;26.38;;
79135;SDS011;68533;51.090;17.216;2023-04-09T05:52:57;53.47;;;26.10;;
79135;SDS011;68533;51.090;17.216;2023-04-09T05:55:23;54.90;;;26.10;;
79135;SDS011;68533;51.090;17.216;2023-04-09T05:57:52;53.53;;;27.23;;
79135;SDS011;68533;51.090;17.216;2023-04-09T06:00:21;55.85;;;26.48;;
79135;SDS011;68533;51.090;17.216;2023-04-09T06:02:47;53.95;;;26.40;;
79135;SDS011;68533;51.090;17.216;2023-04-09T06:05:14;54.45;;;28.27;;
79135;SDS011;68533;51.090;17.216;2023-04-09T06:07:40;60.50;;;29.25;;
79135;SDS011;68533;51.090;17.216;2023-04-09T06:10:07;67.53;;;29.17;;
79135;SDS011;68533;51.090;17.216;2023-04-09T06:12:33;63.47;;;29.90;;
79135;SDS011;68533;51.090;17.216;2023-04-09T06:15:00;68.93;;;31.98;;
79135;SDS011;68533;51.090;17.216;2023-04-09T06:17:27;62.80;;;29.33;;
79135;SDS011;68533;51.090;17.216;2023-04-09T06:19:54;63.60;;;29.67;;
79135;SDS011;68533;51.090;17.216;2023-04-09T06:22:20;56.88;;;27.05;;
79135;SDS011;68533;51.090;17.216;2023-04-09T06:24:48;68.07;;;33.47;;
79135;SDS011;68533;51.090;17.216;2023-04-09T06:27:22;74.40;;;34.83;;
79135;SDS011;68533;51.090;17.216;2023-04-09T06:29:51;68.50;;;32.67;;
79135;SDS011;68533;51.090;17.216;2023-04-09T06:32:17;70.00;;;31.52;;
79135;SDS011;68533;51.090;17.216;2023-04-09T06:34:43;75.13;;;31.45;;
79135;SDS011;68533;51.090;17.216;2023-04-09T06:37:09;69.78;;;31.83;;
79135;SDS011;68533;51.090;17.216;2023-04-09T06:39:35;79.93;;;33.38;;
79135;SDS011;68533;51.090;17.216;2023-04-09T06:42:01;69.75;;;34.17;;
79135;SDS011;68533;51.090;17.216;2023-04-09T06:44:28;61.35;;;29.65;;
79135;SDS011;68533;51.090;17.216;2023-04-09T06:46:55;70.72;;;32.55;;
79135;SDS011;68533;51.090;17.216;2023-04-09T06:49:24;71.90;;;30.83;;
79135;SDS011;68533;51.090;17.216;2023-04-09T06:51:50;69.82;;;33.08;;
79135;SDS011;68533;51.090;17.216;2023-04-09T06:54:18;63.67;;;30.60;;
79135;SDS011;68533;51.090;17.216;2023-04-09T06:56:45;65.97;;;31.90;;
79135;SDS011;68533;51.090;17.216;2023-04-09T06:59:11;64.03;;;28.83;;
79135;SDS011;68533;51.090;17.216;2023-04-09T07:01:37;70.63;;;33.03;;
79135;SDS011;68533;51.090;17.216;2023-04-09T07:04:05;77.47;;;33.92;;
79135;SDS011;68533;51.090;17.216;2023-04-09T07:06:31;68.72;;;33.67;;
79135;SDS011;68533;51.090;17.216;2023-04-09T07:08:57;68.85;;;29.05;;
79135;SDS011;68533;51.090;17.216;2023-04-09T07:11:23;64.35;;;28.95;;
79135;SDS011;68533;51.090;17.216;2023-04-09T07:13:49;60.47;;;27.73;;
79135;SDS011;68533;51.090;17.216;2023-04-09T07:16:23;60.53;;;30.23;;
79135;SDS011;68533;51.090;17.216;2023-04-09T07:18:49;68.28;;;30.50;;
79135;SDS011;68533;51.090;17.216;2023-04-09T07:21:15;63.25;;;28.00;;
79135;SDS011;68533;51.090;17.216;2023-04-09T07:23:41;63.25;;;31.67;;
79135;SDS011;68533;51.090;17.216;2023-04-09T07:26:08;65.85;;;31.27;;
79135;SDS011;68533;51.090;17.216;2023-04-09T07:28:35;65.03;;;29.85;;
79135;SDS011;68533;51.090;17.216;2023-04-09T07:31:04;66.43;;;29.05;;
79135;SDS011;68533;51.090;17.216;2023-04-09T07:33:32;62.38;;;27.70;;
79135;SDS011;68533;51.090;17.216;2023-04-09T07:36:09;59.25;;;26.33;;
79135;SDS011;68533;51.090;17.216;2023-04-09T07:38:35;59.83;;;26.92;;
79135;SDS011;68533;51.090;17.216;2023-04-09T07:41:01;56.58;;;27.52;;
79135;SDS011;68533;51.090;17.216;2023-04-09T07:43:29;62.70;;;29.05;;
79135;SDS011;68533;51.090;17.216;2023-04-09T07:45:56;52.35;;;26.60;;
79135;SDS011;68533;51.090;17.216;2023-04-09T07:48:23;58.47;;;25.42;;
79135;SDS011;68533;51.090;17.216;2023-04-09T07:50:49;59.28;;;27.75;;
79135;SDS011;68533;51.090;17.216;2023-04-09T07:53:16;64.90;;;27.75;;
79135;SDS011;68533;51.090;17.216;2023-04-09T07:55:44;55.00;;;24.83;;
79135;SDS011;68533;51.090;17.216;2023-04-09T07:58:11;57.78;;;26.85;;
79135;SDS011;68533;51.090;17.216;2023-04-09T08:00:37;56.33;;;26.73;;
79135;SDS011;68533;51.090;17.216;2023-04-09T08:03:03;59.85;;;26.50;;
79135;SDS011;68533;51.090;17.216;2023-04-09T08:05:29;62.33;;;29.38;;
79135;SDS011;68533;51.090;17.216;2023-04-09T08:07:55;58.85;;;28.27;;
79135;SDS011;68533;51.090;17.216;2023-04-09T08:10:23;60.38;;;29.02;;
79135;SDS011;68533;51.090;17.216;2023-04-09T08:12:50;63.28;;;30.20;;
79135;SDS011;68533;51.090;17.216;2023-04-09T08:15:16;55.90;;;27.60;;
79135;SDS011;68533;51.090;17.216;2023-04-09T08:17:42;62.63;;;29.35;;
79135;SDS011;68533;51.090;17.216;2023-04-09T08:20:08;56.55;;;26.33;;
79135;SDS011;68533;51.090;17.216;2023-04-09T08:22:45;66.13;;;28.83;;
79135;SDS011;68533;51.090;17.216;2023-04-09T08:25:12;61.55;;;29.55;;
79135;SDS011;68533;51.090;17.216;2023-04-09T08:27:41;62.10;;;29.80;;
79135;SDS011;68533;51.090;17.216;2023-04-09T08:30:07;61.35;;;27.50;;
79135;SDS011;68533;51.090;17.216;2023-04-09T08:32:34;56.80;;;26.73;;
79135;SDS011;68533;51.090;17.216;2023-04-09T08:35:03;60.90;;;29.20;;
79135;SDS011;68533;51.090;17.216;2023-04-09T08:37:30;60.80;;;26.75;;
79135;SDS011;68533;51.090;17.216;2023-04-09T08:39:56;59.90;;;25.25;;
79135;SDS011;68533;51.090;17.216;2023-04-09T08:42:23;56.55;;;27.63;;
79135;SDS011;68533;51.090;17.216;2023-04-09T08:44:52;52.63;;;25.73;;
79135;SDS011;68533;51.090;17.216;2023-04-09T08:47:19;55.47;;;26.70;;
79135;SDS011;68533;51.090;17.216;2023-04-09T08:49:45;55.22;;;27.67;;
79135;SDS011;68533;51.090;17.216;2023-04-09T08:52:15;59.33;;;29.55;;
79135;SDS011;68533;51.090;17.216;2023-04-09T08:54:43;50.40;;;23.10;;
79135;SDS011;68533;51.090;17.216;2023-04-09T08:57:09;57.13;;;28.23;;
79135;SDS011;68533;51.090;17.216;2023-04-09T08:59:35;65.35;;;30.10;;
79135;SDS011;68533;51.090;17.216;2023-04-09T09:02:10;58.13;;;28.77;;
79135;SDS011;68533;51.090;17.216;2023-04-09T09:04:43;64.50;;;29.52;;
79135;SDS011;68533;51.090;17.216;2023-04-09T09:07:18;63.72;;;28.52;;
79135;SDS011;68533;51.090;17.216;2023-04-09T09:12:31;58.47;;;27.55;;
79135;SDS011;68533;51.090;17.216;2023-04-09T09:15:02;64.75;;;30.35;;
79135;SDS011;68533;51.090;17.216;2023-04-09T09:17:54;64.97;;;30.52;;
79135;SDS011;68533;51.090;17.216;2023-04-09T09:20:22;69.30;;;32.15;;
79135;SDS011;68533;51.090;17.216;2023-04-09T09:22:51;60.10;;;27.85;;
79135;SDS011;68533;51.090;17.216;2023-04-09T09:25:19;53.90;;;25.48;;
79135;SDS011;68533;51.090;17.216;2023-04-09T09:27:50;54.60;;;26.30;;
79135;SDS011;68533;51.090;17.216;2023-04-09T09:30:20;56.42;;;27.85;;
79135;SDS011;68533;51.090;17.216;2023-04-09T09:32:50;60.08;;;28.42;;
79135;SDS011;68533;51.090;17.216;2023-04-09T09:35:17;58.63;;;27.05;;
79135;SDS011;68533;51.090;17.216;2023-04-09T09:37:46;65.20;;;30.15;;
79135;SDS011;68533;51.090;17.216;2023-04-09T09:40:27;68.57;;;32.92;;
79135;SDS011;68533;51.090;17.216;2023-04-09T09:42:54;52.58;;;24.85;;
79135;SDS011;68533;51.090;17.216;2023-04-09T09:45:24;58.72;;;29.50;;
79135;SDS011;68533;51.090;17.216;2023-04-09T09:47:51;59.00;;;26.70;;
79135;SDS011;68533;51.090;17.216;2023-04-09T09:52:53;61.13;;;28.52;;
79135;SDS011;68533;51.090;17.216;2023-04-09T09:55:37;70.80;;;26.00;;
79135;SDS011;68533;51.090;17.216;2023-04-09T09:58:23;54.00;;;26.67;;
79135;SDS011;68533;51.090;17.216;2023-04-09T10:00:55;51.13;;;25.23;;
79135;SDS011;68533;51.090;17.216;2023-04-09T10:03:26;64.95;;;29.38;;
79135;SDS011;68533;51.090;17.216;2023-04-09T10:05:56;61.72;;;29.27;;
79135;SDS011;68533;51.090;17.216;2023-04-09T10:08:23;57.42;;;27.20;;
79135;SDS011;68533;51.090;17.216;2023-04-09T10:10:50;71.13;;;34.67;;
79135;SDS011;68533;51.090;17.216;2023-04-09T10:13:39;60.70;;;26.80;;
79135;SDS011;68533;51.090;17.216;2023-04-09T10:16:04;60.20;;;26.33;;
79135;SDS011;68533;51.090;17.216;2023-04-09T10:18:34;60.80;;;29.17;;
79135;SDS011;68533;51.090;17.216;2023-04-09T10:21:06;57.67;;;27.85;;
79135;SDS011;68533;51.090;17.216;2023-04-09T10:23:43;62.30;;;30.33;;
79135;SDS011;68533;51.090;17.216;2023-04-09T10:26:12;65.28;;;31.30;;
79135;SDS011;68533;51.090;17.216;2023-04-09T10:28:40;53.42;;;26.42;;
79135;SDS011;68533;51.090;17.216;2023-04-09T10:31:07;64.13;;;30.23;;
79135;SDS011;68533;51.090;17.216;2023-04-09T10:33:35;55.20;;;28.63;;
79135;SDS011;68533;51.090;17.216;2023-04-09T10:36:03;66.00;;;29.40;;
79135;SDS011;68533;51.090;17.216;2023-04-09T10:38:44;49.90;;;26.77;;
79135;SDS011;68533;51.090;17.216;2023-04-09T10:41:21;50.92;;;25.45;;
79135;SDS011;68533;51.090;17.216;2023-04-09T10:43:49;46.05;;;24.42;;
79135;SDS011;68533;51.090;17.216;2023-04-09T10:46:51;48.58;;;25.02;;
79135;SDS011;68533;51.090;17.216;2023-04-09T10:49:15;46.97;;;25.00;;
79135;SDS011;68533;51.090;17.216;2023-04-09T10:51:46;52.42;;;25.17;;
79135;SDS011;68533;51.090;17.216;2023-04-09T10:57:30;54.60;;;26.67;;
79135;SDS011;68533;51.090;17.216;2023-04-09T11:07:43;51.08;;;23.17;;
79135;SDS011;68533;51.090;17.216;2023-04-09T11:10:11;59.70;;;27.55;;
79135;SDS011;68533;51.090;17.216;2023-04-09T11:12:37;50.45;;;25.90;;
79135;SDS011;68533;51.090;17.216;2023-04-09T11:15:19;58.78;;;27.38;;
79135;SDS011;68533;51.090;17.216;2023-04-09T11:17:48;55.92;;;28.25;;
79135;SDS011;68533;51.090;17.216;2023-04-09T11:20:16;48.63;;;22.90;;
79135;SDS011;68533;51.090;17.216;2023-04-09T11:22:45;47.97;;;23.92;;
79135;SDS011;68533;51.090;17.216;2023-04-09T11:25:18;52.92;;;24.52;;
79135;SDS011;68533;51.090;17.216;2023-04-09T11:27:50;47.85;;;25.40;;
79135;SDS011;68533;51.090;17.216;2023-04-09T11:32:45;50.60;;;25.15;;
79135;SDS011;68533;51.090;17.216;2023-04-09T11:35:14;49.47;;;24.95;;
79135;SDS011;68533;51.090;17.216;2023-04-09T11:37:42;44.75;;;23.23;;
79135;SDS011;68533;51.090;17.216;2023-04-09T11:40:16;44.50;;;22.10;;
79135;SDS011;68533;51.090;17.216;2023-04-09T11:42:47;48.13;;;24.70;;
79135;SDS011;68533;51.090;17.216;2023-04-09T11:45:15;47.22;;;22.73;;
79135;SDS011;68533;51.090;17.216;2023-04-09T11:47:42;48.20;;;25.15;;
79135;SDS011;68533;51.090;17.216;2023-04-09T11:50:14;47.47;;;24.38;;
79135;SDS011;68533;51.090;17.216;2023-04-09T11:52:41;47.85;;;23.13;;
79135;SDS011;68533;51.090;17.216;2023-04-09T11:55:21;42.40;;;21.95;;
79135;SDS011;68533;51.090;17.216;2023-04-09T11:57:48;42.15;;;21.63;;
79135;SDS011;68533;51.090;17.216;2023-04-09T12:00:16;44.28;;;22.17;;
79135;SDS011;68533;51.090;17.216;2023-04-09T12:02:45;45.95;;;21.77;;
79135;SDS011;68533;51.090;17.216;2023-04-09T12:05:27;41.95;;;21.75;;
79135;SDS011;68533;51.090;17.216;2023-04-09T12:07:58;43.10;;;21.85;;
79135;SDS011;68533;51.090;17.216;2023-04-09T12:10:30;46.00;;;22.88;;
79135;SDS011;68533;51.090;17.216;2023-04-09T12:13:00;39.75;;;20.83;;
79135;SDS011;68533;51.090;17.216;2023-04-09T12:15:38;46.15;;;23.30;;
79135;SDS011;68533;51.090;17.216;2023-04-09T12:18:12;45.42;;;20.98;;
79135;SDS011;68533;51.090;17.216;2023-04-09T12:20:39;49.15;;;21.73;;
79135;SDS011;68533;51.090;17.216;2023-04-09T12:23:08;43.17;;;22.75;;
79135;SDS011;68533;51.090;17.216;2023-04-09T12:25:39;38.28;;;20.27;;
79135;SDS011;68533;51.090;17.216;2023-04-09T12:28:07;37.15;;;19.23;;
79135;SDS011;68533;51.090;17.216;2023-04-09T12:30:34;46.47;;;22.13;;
79135;SDS011;68533;51.090;17.216;2023-04-09T12:33:01;39.03;;;19.23;;
79135;SDS011;68533;51.090;17.216;2023-04-09T12:35:28;41.03;;;21.13;;
79135;SDS011;68533;51.090;17.216;2023-04-09T12:37:54;42.38;;;21.63;;
79135;SDS011;68533;51.090;17.216;2023-04-09T12:40:20;49.60;;;22.55;;
79135;SDS011;68533;51.090;17.216;2023-04-09T12:42:46;41.10;;;21.67;;
79135;SDS011;68533;51.090;17.216;2023-04-09T12:45:15;49.17;;;22.73;;
79135;SDS011;68533;51.090;17.216;2023-04-09T12:47:42;44.22;;;21.83;;
79135;SDS011;68533;51.090;17.216;2023-04-09T12:50:09;41.95;;;20.45;;
79135;SDS011;68533;51.090;17.216;2023-04-09T12:52:36;42.20;;;22.23;;
79135;SDS011;68533;51.090;17.216;2023-04-09T12:55:02;41.15;;;19.25;;
79135;SDS011;68533;51.090;17.216;2023-04-09T12:57:29;36.50;;;19.13;;
79135;SDS011;68533;51.090;17.216;2023-04-09T12:59:55;42.13;;;21.40;;
79135;SDS011;68533;51.090;17.216;2023-04-09T13:02:22;40.20;;;22.00;;
79135;SDS011;68533;51.090;17.216;2023-04-09T13:04:48;40.63;;;22.25;;
79135;SDS011;68533;51.090;17.216;2023-04-09T13:07:18;43.53;;;22.80;;
79135;SDS011;68533;51.090;17.216;2023-04-09T13:09:45;42.05;;;21.02;;
79135;SDS011;68533;51.090;17.216;2023-04-09T13:12:12;45.22;;;21.27;;
79135;SDS011;68533;51.090;17.216;2023-04-09T13:14:42;39.95;;;19.85;;
79135;SDS011;68533;51.090;17.216;2023-04-09T13:17:09;44.50;;;21.50;;
79135;SDS011;68533;51.090;17.216;2023-04-09T13:19:35;45.67;;;23.00;;
79135;SDS011;68533;51.090;17.216;2023-04-09T13:22:01;39.85;;;19.80;;
79135;SDS011;68533;51.090;17.216;2023-04-09T13:24:33;44.92;;;22.30;;
79135;SDS011;68533;51.090;17.216;2023-04-09T13:27:00;39.20;;;19.58;;
79135;SDS011;68533;51.090;17.216;2023-04-09T13:29:26;44.30;;;22.38;;
79135;SDS011;68533;51.090;17.216;2023-04-09T13:31:56;45.83;;;21.40;;
79135;SDS011;68533;51.090;17.216;2023-04-09T13:34:24;44.85;;;22.50;;
79135;SDS011;68533;51.090;17.216;2023-04-09T13:36:50;48.13;;;24.17;;
79135;SDS011;68533;51.090;17.216;2023-04-09T13:39:16;46.45;;;23.75;;
79135;SDS011;68533;51.090;17.216;2023-04-09T13:41:42;47.83;;;22.42;;
79135;SDS011;68533;51.090;17.216;2023-04-09T13:44:08;46.67;;;24.33;;
79135;SDS011;68533;51.090;17.216;2023-04-09T13:46:35;47.63;;;23.73;;
79135;SDS011;68533;51.090;17.216;2023-04-09T13:49:01;46.10;;;23.30;;
79135;SDS011;68533;51.090;17.216;2023-04-09T13:51:27;45.97;;;22.83;;
79135;SDS011;68533;51.090;17.216;2023-04-09T13:53:55;40.88;;;22.27;;
79135;SDS011;68533;51.090;17.216;2023-04-09T13:58:53;41.47;;;20.95;;
79135;SDS011;68533;51.090;17.216;2023-04-09T14:01:19;43.67;;;21.30;;
79135;SDS011;68533;51.090;17.216;2023-04-09T14:03:45;44.13;;;22.13;;
79135;SDS011;68533;51.090;17.216;2023-04-09T14:06:11;44.58;;;21.60;;
79135;SDS011;68533;51.090;17.216;2023-04-09T14:08:38;45.25;;;21.27;;
79135;SDS011;68533;51.090;17.216;2023-04-09T14:11:04;46.00;;;21.35;;
79135;SDS011;68533;51.090;17.216;2023-04-09T14:13:31;44.95;;;23.27;;
79135;SDS011;68533;51.090;17.216;2023-04-09T14:15:57;48.95;;;25.33;;
79135;SDS011;68533;51.090;17.216;2023-04-09T14:18:23;40.60;;;23.42;;
79135;SDS011;68533;51.090;17.216;2023-04-09T14:20:49;46.83;;;23.00;;
79135;SDS011;68533;51.090;17.216;2023-04-09T14:23:15;48.83;;;23.85;;
79135;SDS011;68533;51.090;17.216;2023-04-09T14:25:41;47.50;;;23.92;;
79135;SDS011;68533;51.090;17.216;2023-04-09T14:28:08;51.50;;;24.67;;
79135;SDS011;68533;51.090;17.216;2023-04-09T14:30:34;53.17;;;24.13;;
79135;SDS011;68533;51.090;17.216;2023-04-09T14:33:00;49.70;;;24.95;;
79135;SDS011;68533;51.090;17.216;2023-04-09T14:35:26;54.85;;;24.52;;
79135;SDS011;68533;51.090;17.216;2023-04-09T14:37:52;54.33;;;25.15;;
79135;SDS011;68533;51.090;17.216;2023-04-09T14:40:19;57.75;;;27.23;;
79135;SDS011;68533;51.090;17.216;2023-04-09T14:42:46;59.67;;;27.92;;
79135;SDS011;68533;51.090;17.216;2023-04-09T14:45:13;57.63;;;26.65;;
79135;SDS011;68533;51.090;17.216;2023-04-09T14:47:39;55.80;;;26.35;;
79135;SDS011;68533;51.090;17.216;2023-04-09T14:50:05;53.72;;;26.00;;
79135;SDS011;68533;51.090;17.216;2023-04-09T14:52:31;54.75;;;25.70;;